Time;durP1;ratioP1;P1;durP2;ratioP2;P2;SDS_P1;SDS_P2;PMS_P1;PMS_P2;Temp;Humidity;BMP_temperature;BMP_pressure;BME280_temperature;BME280_humidity;BME280_pressure;Samples;Min_cycle;Max_cycle;Signal;HPM_P1;HPM_P2
2023/06/19 00:02:05;;;;;;;14.55;6.18;;;;;;;18.24;69.57;99305.81;5018227;28;20796;-54
2023/06/19 00:04:33;;;;;;;10.70;5.70;;;;;;;18.22;70.31;99312.88;5018454;28;20496;-54
2023/06/19 00:07:00;;;;;;;10.98;6.22;;;;;;;18.19;69.49;99308.66;5021791;28;20065;-53
2023/06/19 00:09:27;;;;;;;11.63;6.13;;;;;;;18.18;69.65;99317.44;5018522;28;20045;-51
2023/06/19 00:11:54;;;;;;;9.70;5.43;;;;;;;18.15;70.39;99312.34;5019705;28;20137;-50
2023/06/19 00:14:20;;;;;;;11.27;6.82;;;;;;;18.16;69.94;99318.41;5027002;28;20049;-53
2023/06/19 00:16:47;;;;;;;10.82;5.85;;;;;;;18.13;69.93;99308.91;5024029;28;20045;-54
2023/06/19 00:19:14;;;;;;;10.65;5.70;;;;;;;18.10;69.62;99316.91;5023447;28;20045;-52
2023/06/19 00:21:42;;;;;;;10.73;6.40;;;;;;;18.08;69.50;99323.97;5029481;28;20111;-53
2023/06/19 00:24:11;;;;;;;11.65;5.90;;;;;;;18.04;70.13;99325.88;5016595;28;20145;-51
2023/06/19 00:26:40;;;;;;;11.15;6.45;;;;;;;18.03;70.29;99333.84;5024784;28;20140;-53
2023/06/19 00:29:08;;;;;;;12.52;6.90;;;;;;;18.03;69.98;99333.84;5022729;28;20132;-53
2023/06/19 00:31:37;;;;;;;13.82;6.40;;;;;;;18.03;69.89;99339.06;5023195;28;20077;-52
2023/06/19 00:34:05;;;;;;;10.77;6.05;;;;;;;18.03;70.43;99334.66;5025143;28;20511;-54
2023/06/19 00:36:39;;;;;;;11.05;5.88;;;;;;;18.03;70.27;99339.91;5018565;28;20064;-49
2023/06/19 00:39:08;;;;;;;11.35;5.95;;;;;;;18.03;70.34;99341.69;5021361;28;20048;-50
2023/06/19 00:41:37;;;;;;;11.93;6.72;;;;;;;18.02;69.90;99342.59;5018674;28;20731;-53
2023/06/19 00:44:06;;;;;;;11.82;6.22;;;;;;;18.00;70.79;99334.78;5020682;28;20681;-54
2023/06/19 00:46:37;;;;;;;13.45;6.68;;;;;;;17.99;70.01;99339.19;5022752;28;20045;-49
2023/06/19 00:49:07;;;;;;;10.63;6.32;;;;;;;17.96;70.17;99344.56;5023043;28;20452;-51
2023/06/19 00:51:35;;;;;;;11.55;6.60;;;;;;;17.94;70.91;99335.91;5018732;28;20046;-50
2023/06/19 00:54:05;;;;;;;11.90;6.90;;;;;;;17.93;70.45;99339.47;5018249;28;20065;-49
2023/06/19 00:56:37;;;;;;;13.60;6.82;;;;;;;17.92;70.23;99331.69;5017035;28;20149;-51
2023/06/19 00:59:12;;;;;;;13.38;6.68;;;;;;;17.92;70.87;99337.78;5026429;28;20072;-52
2023/06/19 01:01:39;;;;;;;13.45;6.97;;;;;;;17.90;70.41;99339.59;5013508;28;20509;-53
2023/06/19 01:04:06;;;;;;;13.52;6.63;;;;;;;17.88;70.54;99341.44;5025655;28;20053;-49
2023/06/19 01:06:47;;;;;;;14.20;7.45;;;;;;;17.84;70.38;99339.88;5026092;28;20067;-53
2023/06/19 01:09:16;;;;;;;13.82;7.18;;;;;;;17.84;70.59;99345.13;5020175;28;20057;-53
2023/06/19 01:11:47;;;;;;;15.52;7.88;;;;;;;17.84;71.07;99348.56;5018924;28;20050;-51
2023/06/19 01:14:21;;;;;;;18.60;8.30;;;;;;;17.81;70.48;99351.34;5019924;28;20054;-50
2023/06/19 01:16:48;;;;;;;16.08;8.48;;;;;;;17.80;70.39;99343.56;5014892;28;20099;-50
2023/06/19 01:19:20;;;;;;;18.08;8.75;;;;;;;17.78;70.43;99340.16;5021885;28;20054;-52
2023/06/19 01:21:48;;;;;;;16.25;8.48;;;;;;;17.77;71.47;99348.94;5033305;28;20555;-54
2023/06/19 01:24:15;;;;;;;17.92;8.43;;;;;;;17.72;70.52;99344.75;5022461;28;20091;-49
2023/06/19 01:26:45;;;;;;;17.10;8.43;;;;;;;17.68;71.20;99351.03;5027263;28;20525;-54
2023/06/19 01:29:15;;;;;;;16.15;8.43;;;;;;;17.68;70.91;99350.19;5024692;28;20056;-52
2023/06/19 01:32:07;;;;;;;17.42;8.48;;;;;;;17.56;71.42;99346.34;5024059;28;20129;-55
2023/06/19 01:34:36;;;;;;;16.40;7.63;;;;;;;17.60;70.75;99347.91;5028886;28;20053;-54
2023/06/19 01:37:07;;;;;;;19.65;8.55;;;;;;;17.58;70.79;99341.88;5017561;28;20108;-53
2023/06/19 01:39:35;;;;;;;20.08;9.60;;;;;;;17.56;70.73;99339.31;5024897;28;20112;-53
2023/06/19 01:42:04;;;;;;;18.00;8.45;;;;;;;17.53;70.61;99351.69;5018416;28;20545;-53
2023/06/19 01:44:31;;;;;;;17.45;8.35;;;;;;;17.51;71.36;99345.66;5020242;28;20053;-54
2023/06/19 01:46:58;;;;;;;18.02;8.90;;;;;;;17.49;71.46;99340.50;5015115;28;20041;-52
2023/06/19 01:49:24;;;;;;;19.23;8.88;;;;;;;17.47;71.15;99335.31;5018211;28;20440;-54
2023/06/19 01:51:51;;;;;;;18.23;8.52;;;;;;;17.49;71.31;99340.50;5010833;28;20046;-58
2023/06/19 01:54:18;;;;;;;17.05;8.48;;;;;;;17.46;71.33;99333.63;5016927;28;20059;-54
2023/06/19 01:56:44;;;;;;;17.88;8.43;;;;;;;17.47;71.32;99345.78;5013859;28;20049;-52
2023/06/19 01:59:11;;;;;;;17.45;8.07;;;;;;;17.47;71.27;99343.19;5016063;28;20053;-51
2023/06/19 02:01:38;;;;;;;18.80;7.60;;;;;;;17.45;71.25;99345.03;5022739;28;20058;-54
2023/06/19 02:04:05;;;;;;;19.48;8.27;;;;;;;17.44;70.86;99339.84;5029078;28;20485;-53
2023/06/19 02:06:31;;;;;;;18.27;8.35;;;;;;;17.44;71.27;99338.09;5021418;28;20053;-54
2023/06/19 02:08:58;;;;;;;18.35;8.50;;;;;;;17.44;70.82;99335.47;5030883;28;20777;-50
2023/06/19 02:11:25;;;;;;;21.05;8.38;;;;;;;17.43;71.43;99341.59;5027804;28;20493;-54
2023/06/19 02:13:51;;;;;;;19.10;8.45;;;;;;;17.43;71.64;99340.78;5023414;28;20128;-55
2023/06/19 02:16:18;;;;;;;20.00;8.90;;;;;;;17.40;71.77;99344.38;5019946;28;20049;-53
2023/06/19 02:18:45;;;;;;;23.38;10.02;;;;;;;17.38;71.17;99342.72;5019810;28;20180;-55
2023/06/19 02:21:11;;;;;;;17.95;9.05;;;;;;;17.34;70.98;99347.25;5026009;28;20401;-52
2023/06/19 02:23:38;;;;;;;20.15;8.65;;;;;;;17.32;71.48;99347.31;5027618;28;20073;-54
2023/06/19 02:26:04;;;;;;;17.80;9.02;;;;;;;17.29;71.75;99338.75;5026386;28;20045;-53
2023/06/19 02:28:31;;;;;;;18.63;8.63;;;;;;;17.27;71.20;99341.44;5024271;28;20132;-56
2023/06/19 02:30:58;;;;;;;19.13;8.27;;;;;;;17.24;72.08;99341.53;5024919;28;20053;-54
2023/06/19 02:33:24;;;;;;;19.92;9.48;;;;;;;17.21;71.67;99345.16;5025872;28;20041;-53
2023/06/19 02:35:51;;;;;;;19.77;9.25;;;;;;;17.18;71.08;99350.50;5020885;28;20525;-53
2023/06/19 02:38:21;;;;;;;20.67;9.13;;;;;;;17.15;71.90;99344.53;5021748;28;20504;-52
2023/06/19 02:40:48;;;;;;;19.83;9.38;;;;;;;17.11;71.87;99356.91;5016595;28;20050;-54
2023/06/19 02:43:15;;;;;;;21.75;8.98;;;;;;;17.08;71.37;99352.66;5026769;28;20045;-55
2023/06/19 02:45:42;;;;;;;18.40;8.98;;;;;;;17.05;71.11;99357.09;5018091;28;20045;-52
2023/06/19 02:48:10;;;;;;;19.05;8.73;;;;;;;17.02;71.58;99359.88;5029386;28;20063;-53
2023/06/19 02:50:36;;;;;;;20.85;8.75;;;;;;;17.02;71.02;99357.25;5020758;28;20045;-52
2023/06/19 02:53:03;;;;;;;17.80;8.68;;;;;;;16.98;71.81;99363.53;5031704;28;20793;-56
2023/06/19 02:55:29;;;;;;;19.77;8.98;;;;;;;16.94;71.02;99361.03;5023564;28;20129;-55
2023/06/19 02:57:56;;;;;;;16.30;7.63;;;;;;;16.92;71.11;99367.25;5018424;28;20286;-52
2023/06/19 03:00:23;;;;;;;19.05;7.50;;;;;;;16.88;71.03;99366.50;5022294;28;20045;-52
2023/06/19 03:02:50;;;;;;;21.27;8.38;;;;;;;16.87;72.10;99366.56;5033438;28;20081;-54
2023/06/19 03:05:17;;;;;;;18.02;7.95;;;;;;;16.83;71.68;99369.28;5029587;28;20045;-54
2023/06/19 03:07:44;;;;;;;19.60;9.35;;;;;;;16.85;71.51;99382.31;5030558;28;20048;-52
2023/06/19 03:10:11;;;;;;;20.02;8.35;;;;;;;16.86;71.81;99384.03;5033937;28;20045;-54
2023/06/19 03:12:37;;;;;;;22.08;9.15;;;;;;;16.85;71.85;99382.31;5020701;28;20053;-54
2023/06/19 03:15:05;;;;;;;20.45;9.10;;;;;;;16.85;71.97;99389.31;5023027;28;20049;-57
2023/06/19 03:17:31;;;;;;;21.90;9.65;;;;;;;16.83;71.85;99386.75;5022093;28;20453;-54
2023/06/19 03:19:58;;;;;;;19.58;9.50;;;;;;;16.83;72.60;99394.59;5028688;28;20058;-55
2023/06/19 03:22:25;;;;;;;21.50;8.90;;;;;;;16.84;72.16;99391.06;5015920;28;20049;-57
2023/06/19 03:24:52;;;;;;;23.40;9.48;;;;;;;16.85;72.25;99395.38;5017908;28;20049;-54
2023/06/19 03:27:18;;;;;;;19.85;8.75;;;;;;;16.83;72.99;99395.44;5023890;28;20059;-57
2023/06/19 03:29:45;;;;;;;20.23;9.95;;;;;;;16.82;72.73;99398.16;5025748;28;20052;-53
2023/06/19 03:32:12;;;;;;;20.55;9.60;;;;;;;16.81;72.26;99393.81;5020776;28;20059;-53
2023/06/19 03:34:38;;;;;;;24.92;9.88;;;;;;;16.77;72.90;99395.69;5026150;28;20500;-54
2023/06/19 03:37:05;;;;;;;19.80;9.50;;;;;;;16.76;72.59;99393.13;5020550;28;20046;-55
2023/06/19 03:39:32;;;;;;;17.75;8.63;;;;;;;16.75;72.02;99407.97;5021862;28;20049;-55
2023/06/19 03:41:58;;;;;;;18.77;8.55;;;;;;;16.74;72.74;99400.19;5017980;28;20376;-57
2023/06/19 03:44:25;;;;;;;18.75;8.20;;;;;;;16.72;71.94;99407.25;5012420;28;20128;-53
2023/06/19 03:46:52;;;;;;;17.40;8.85;;;;;;;16.68;72.23;99403.88;5021554;28;20046;-55
2023/06/19 03:49:18;;;;;;;18.40;8.55;;;;;;;16.65;72.76;99402.25;5020594;28;20400;-56
2023/06/19 03:51:45;;;;;;;17.75;8.48;;;;;;;16.63;73.24;99404.06;5023161;28;20053;-54
2023/06/19 03:54:11;;;;;;;17.77;8.70;;;;;;;16.62;71.92;99415.41;5017299;28;20045;-54
2023/06/19 03:56:38;;;;;;;16.83;7.72;;;;;;;16.61;71.95;99420.75;5019715;28;20041;-55
2023/06/19 03:59:05;;;;;;;19.77;8.15;;;;;;;16.61;72.49;99421.56;5014082;28;21763;-54
2023/06/19 04:01:31;;;;;;;15.90;8.23;;;;;;;16.63;72.78;99426.75;5021315;28;20049;-55
2023/06/19 04:03:59;;;;;;;21.35;8.38;;;;;;;16.66;72.75;99429.25;5013983;28;20054;-57
2023/06/19 04:06:25;;;;;;;17.83;8.25;;;;;;;16.69;72.93;99431.75;5021188;28;20466;-54
2023/06/19 04:08:52;;;;;;;18.42;7.93;;;;;;;16.69;72.75;99435.19;5026207;28;20045;-55
2023/06/19 04:11:19;;;;;;;16.63;7.53;;;;;;;16.68;72.97;99438.72;5020576;28;20052;-56
2023/06/19 04:13:46;;;;;;;14.60;7.25;;;;;;;16.68;73.04;99437.88;5024842;28;20048;-54
2023/06/19 04:16:13;;;;;;;17.25;7.82;;;;;;;16.65;72.94;99440.63;5022079;28;20057;-57
2023/06/19 04:18:39;;;;;;;16.75;7.32;;;;;;;16.64;72.21;99442.38;5027279;28;20044;-56
2023/06/19 04:21:07;;;;;;;18.80;8.27;;;;;;;16.64;72.99;99447.59;5019995;28;20126;-54
2023/06/19 04:23:34;;;;;;;21.48;8.50;;;;;;;16.63;72.59;99448.53;5023928;28;20140;-55
2023/06/19 04:26:00;;;;;;;19.08;8.15;;;;;;;16.61;72.24;99445.09;5025636;28;20045;-56
2023/06/19 04:28:27;;;;;;;17.83;7.47;;;;;;;16.60;72.53;99451.25;5025727;28;20155;-55
2023/06/19 04:30:59;;;;;;;16.42;6.88;;;;;;;16.59;72.48;99449.56;5022424;28;20111;-55
2023/06/19 04:33:28;;;;;;;15.95;7.30;;;;;;;16.57;72.64;99457.44;5020622;28;20054;-53
2023/06/19 04:35:56;;;;;;;14.13;7.35;;;;;;;16.56;72.16;99452.28;5019125;28;20040;-54
2023/06/19 04:38:24;;;;;;;16.77;6.72;;;;;;;16.57;72.17;99457.44;5022472;28;20053;-56
2023/06/19 04:40:51;;;;;;;16.45;7.25;;;;;;;16.59;72.56;99460.00;5025818;28;20048;-55
2023/06/19 04:43:18;;;;;;;19.27;6.78;;;;;;;16.62;72.48;99464.25;5025698;28;20053;-56
2023/06/19 04:45:45;;;;;;;13.43;6.43;;;;;;;16.63;73.07;99466.81;5026803;28;20045;-57
2023/06/19 04:48:11;;;;;;;13.90;6.18;;;;;;;16.65;72.92;99469.38;5022148;28;20535;-57
2023/06/19 04:50:38;;;;;;;15.25;6.55;;;;;;;16.69;72.53;99479.66;5022102;28;20396;-58
2023/06/19 04:53:05;;;;;;;11.52;5.75;;;;;;;16.72;72.79;99480.47;5026028;28;20132;-56
2023/06/19 04:55:32;;;;;;;15.98;6.32;;;;;;;16.75;72.62;99482.97;5015941;28;20037;-56
2023/06/19 04:57:59;;;;;;;12.80;6.97;;;;;;;16.79;73.04;99481.94;5019561;28;20052;-56
2023/06/19 05:00:26;;;;;;;18.20;5.80;;;;;;;16.83;72.23;99478.28;5026879;28;20474;-57
2023/06/19 05:02:53;;;;;;;12.25;6.38;;;;;;;16.88;72.78;99478.97;5016533;28;20379;-56
2023/06/19 05:05:20;;;;;;;14.77;6.20;;;;;;;16.92;72.47;99477.94;5021796;28;20057;-58
2023/06/19 05:07:50;;;;;;;14.27;6.22;;;;;;;16.99;72.88;99477.72;5026267;28;20233;-56
2023/06/19 05:10:17;;;;;;;16.17;6.88;;;;;;;17.04;73.17;99491.44;5028795;28;20658;-58
2023/06/19 05:12:44;;;;;;;14.45;6.03;;;;;;;17.11;72.49;99481.63;5015620;28;20046;-57
2023/06/19 05:15:11;;;;;;;15.32;6.88;;;;;;;17.17;73.38;99489.25;5025299;28;20054;-56
2023/06/19 05:17:38;;;;;;;12.43;4.97;;;;;;;17.24;72.56;99492.47;5020233;28;20060;-58
2023/06/19 05:20:07;;;;;;;11.98;5.65;;;;;;;17.31;73.24;99491.31;5024403;28;20074;-55
2023/06/19 05:22:34;;;;;;;14.35;5.80;;;;;;;17.38;72.78;99495.41;5023747;28;20061;-57
2023/06/19 05:25:01;;;;;;;16.58;6.90;;;;;;;17.45;73.38;99499.47;5010559;28;20096;-58
2023/06/19 05:27:27;;;;;;;12.32;6.03;;;;;;;17.55;72.45;99499.09;5023411;28;20656;-56
2023/06/19 05:29:54;;;;;;;16.40;6.35;;;;;;;17.61;72.26;99491.00;5026772;28;20046;-56
2023/06/19 05:32:21;;;;;;;12.85;5.65;;;;;;;17.67;72.77;99492.50;5022454;28;20049;-56
2023/06/19 05:34:47;;;;;;;12.68;5.80;;;;;;;17.75;72.41;99494.78;5025097;28;20053;-55
2023/06/19 05:37:14;;;;;;;14.20;6.45;;;;;;;17.84;71.92;99492.66;5028205;28;20056;-55
2023/06/19 05:39:41;;;;;;;15.63;6.65;;;;;;;17.94;72.79;99498.34;5019006;28;20048;-54
2023/06/19 05:42:07;;;;;;;14.45;6.13;;;;;;;18.06;72.34;99498.75;5027643;28;20188;-57
2023/06/19 05:44:35;;;;;;;16.10;6.82;;;;;;;18.16;72.33;99502.72;5028432;28;20060;-54
2023/06/19 05:47:02;;;;;;;13.48;5.70;;;;;;;18.30;72.33;99498.66;5022880;28;20493;-54
2023/06/19 05:49:29;;;;;;;15.15;6.25;;;;;;;18.43;71.96;99493.69;5027577;28;20061;-55
2023/06/19 05:51:58;;;;;;;13.77;5.60;;;;;;;18.57;71.52;99499.19;5018978;28;20425;-56
2023/06/19 05:54:25;;;;;;;16.45;5.20;;;;;;;18.68;71.42;99493.44;5023575;28;20488;-53
2023/06/19 05:56:53;;;;;;;11.85;5.57;;;;;;;18.83;71.82;99501.53;5027327;28;20044;-56
2023/06/19 05:59:20;;;;;;;11.88;5.03;;;;;;;18.96;71.69;99501.81;5024819;28;20057;-57
2023/06/19 06:01:46;;;;;;;13.30;6.43;;;;;;;19.10;70.96;99509.09;5021963;28;20760;-53
2023/06/19 06:04:13;;;;;;;17.00;5.80;;;;;;;19.23;71.06;99514.59;5022176;28;20079;-57
2023/06/19 06:06:40;;;;;;;12.75;5.13;;;;;;;19.36;71.00;99513.09;5028235;28;20052;-56
2023/06/19 06:09:10;;;;;;;14.10;5.40;;;;;;;19.50;70.65;99512.44;5020862;28;20053;-55
2023/06/19 06:11:37;;;;;;;15.18;5.35;;;;;;;19.62;70.37;99507.50;5027325;28;20053;-57
2023/06/19 06:14:04;;;;;;;9.70;5.13;;;;;;;19.73;70.09;99518.31;5018763;28;20075;-56
2023/06/19 06:16:31;;;;;;;9.98;4.43;;;;;;;19.85;69.09;99518.63;5016738;28;20120;-57
2023/06/19 06:18:58;;;;;;;10.30;5.25;;;;;;;19.97;69.37;99520.66;5027604;28;20081;-54
2023/06/19 06:21:25;;;;;;;12.10;4.97;;;;;;;20.11;69.35;99516.50;5023048;28;20045;-57
2023/06/19 06:23:53;;;;;;;13.27;4.70;;;;;;;20.24;68.89;99522.84;5027941;28;20060;-56
2023/06/19 06:26:19;;;;;;;10.52;4.53;;;;;;;20.37;68.29;99522.19;5021756;28;20132;-56
2023/06/19 06:28:46;;;;;;;11.88;5.47;;;;;;;20.49;68.83;99524.19;5026278;28;20516;-55
2023/06/19 06:31:12;;;;;;;12.20;5.20;;;;;;;20.63;68.43;99527.84;5026067;28;20046;-54
2023/06/19 06:33:39;;;;;;;11.30;5.00;;;;;;;20.78;68.13;99529.66;5030948;28;20053;-54
2023/06/19 06:36:06;;;;;;;12.77;5.25;;;;;;;20.96;68.26;99524.38;5022652;28;20041;-53
2023/06/19 06:38:34;;;;;;;11.18;4.95;;;;;;;21.14;67.96;99526.94;5024066;28;20049;-54
2023/06/19 06:41:01;;;;;;;13.52;5.25;;;;;;;21.33;68.11;99521.47;5022253;28;20038;-56
2023/06/19 06:43:27;;;;;;;11.10;4.90;;;;;;;21.52;66.99;99526.53;5020743;28;20049;-55
2023/06/19 06:45:54;;;;;;;11.80;5.70;;;;;;;21.66;66.92;99527.56;5023282;28;20049;-54
2023/06/19 06:48:21;;;;;;;12.27;5.75;;;;;;;21.86;66.65;99533.50;5019082;28;20041;-53
2023/06/19 06:50:47;;;;;;;9.68;4.90;;;;;;;22.04;65.94;99536.81;5025463;28;20701;-52
2023/06/19 06:53:14;;;;;;;9.35;5.32;;;;;;;22.16;65.57;99532.63;5018204;28;20068;-53
2023/06/19 06:55:41;;;;;;;12.15;4.30;;;;;;;22.34;65.57;99538.56;5023862;28;20051;-57
2023/06/19 06:58:07;;;;;;;11.10;5.40;;;;;;;22.57;65.75;99544.28;5022104;28;20053;-56
2023/06/19 07:00:34;;;;;;;9.45;4.80;;;;;;;22.76;64.93;99538.69;5016321;28;20080;-51
2023/06/19 07:03:01;;;;;;;11.48;5.22;;;;;;;22.89;63.88;99544.06;5020937;28;20053;-52
2023/06/19 07:05:29;;;;;;;10.93;5.10;;;;;;;22.95;63.23;99548.13;5018226;28;20056;-49
2023/06/19 07:07:56;;;;;;;11.38;5.20;;;;;;;22.97;62.54;99551.53;5024235;28;20049;-51
2023/06/19 07:10:23;;;;;;;13.20;5.65;;;;;;;22.97;63.28;99551.53;5020307;28;20050;-55
2023/06/19 07:12:51;;;;;;;12.48;4.95;;;;;;;22.98;62.98;99563.78;5020680;28;20072;-55
2023/06/19 07:15:18;;;;;;;10.60;5.40;;;;;;;22.91;61.90;99551.91;5019581;28;20386;-55
2023/06/19 07:17:45;;;;;;;10.18;4.43;;;;;;;22.85;62.16;99554.00;5024628;28;20045;-52
2023/06/19 07:20:12;;;;;;;10.25;4.88;;;;;;;22.81;61.64;99557.75;5024805;28;20512;-55
2023/06/19 07:22:39;;;;;;;9.68;4.95;;;;;;;22.83;61.90;99555.03;5020797;28;20037;-51
2023/06/19 07:25:06;;;;;;;13.93;6.18;;;;;;;22.87;62.19;99563.59;5021890;28;21603;-51
2023/06/19 07:27:33;;;;;;;12.50;5.30;;;;;;;22.91;62.28;99565.97;5017160;28;20057;-53
2023/06/19 07:30:00;;;;;;;9.52;4.70;;;;;;;23.06;62.03;99564.13;5025754;28;20049;-51
2023/06/19 07:32:26;;;;;;;13.65;5.50;;;;;;;23.20;62.02;99565.06;5019189;28;20041;-54
2023/06/19 07:34:53;;;;;;;9.80;4.60;;;;;;;23.29;61.36;99572.41;5022593;28;20506;-55
2023/06/19 07:37:20;;;;;;;11.75;4.38;;;;;;;23.28;59.93;99557.50;5021284;28;20042;-55
2023/06/19 07:39:50;;;;;;;9.55;4.57;;;;;;;23.43;60.98;99558.31;5015320;28;20061;-52
2023/06/19 07:42:18;;;;;;;9.20;4.53;;;;;;;23.62;61.15;99571.22;5018382;28;20049;-54
2023/06/19 07:44:45;;;;;;;11.32;5.43;;;;;;;23.93;61.87;99570.13;5022242;28;20041;-52
2023/06/19 07:47:13;;;;;;;8.85;3.72;;;;;;;24.15;60.07;99563.44;5021561;28;20052;-50
2023/06/19 07:49:40;;;;;;;15.52;5.53;;;;;;;24.25;59.53;99564.50;5023697;28;20042;-51
2023/06/19 07:52:09;;;;;;;12.70;5.60;;;;;;;24.44;59.24;99561.44;5018882;28;20474;-55
2023/06/19 07:54:36;;;;;;;;;;;;;;;24.55;59.11;99560.69;5021467;28;20055;-55
2023/06/19 07:57:02;;;;;;;11.02;4.60;;;;;;;24.61;58.37;99554.97;5022288;28;19921;-54
2023/06/19 07:59:29;;;;;;;8.25;4.07;;;;;;;24.62;57.63;99558.47;5016363;28;20061;-53
2023/06/19 08:01:56;;;;;;;11.30;4.95;;;;;;;24.50;57.59;99557.50;5015310;28;20124;-51
2023/06/19 08:04:22;;;;;;;9.93;4.68;;;;;;;24.46;58.61;99561.31;5017473;28;20057;-51
2023/06/19 08:06:49;;;;;;;10.68;5.05;;;;;;;24.46;58.30;99566.63;5023972;28;20076;-52
2023/06/19 08:09:16;;;;;;;13.93;4.35;;;;;;;24.44;57.71;99565.88;5029679;28;20135;-51
2023/06/19 08:11:43;;;;;;;8.80;3.85;;;;;;;24.33;57.50;99572.75;5014790;28;20461;-49
2023/06/19 08:14:09;;;;;;;8.45;3.85;;;;;;;24.21;57.57;99579.72;5016762;28;20058;-50
2023/06/19 08:16:36;;;;;;;9.98;4.80;;;;;;;24.04;57.13;99578.19;5024051;28;20132;-50
2023/06/19 08:19:03;;;;;;;11.38;4.88;;;;;;;23.87;56.99;99572.22;5018151;28;20053;-50
2023/06/19 08:21:29;;;;;;;11.60;4.72;;;;;;;23.83;57.08;99575.16;5016653;28;20052;-50
2023/06/19 08:23:56;;;;;;;9.13;4.78;;;;;;;23.78;56.96;99577.28;5015898;28;20123;-50
2023/06/19 08:26:23;;;;;;;12.10;5.28;;;;;;;23.76;57.90;99574.72;5016259;28;20601;-52
2023/06/19 08:28:51;;;;;;;8.85;4.93;;;;;;;23.91;57.62;99572.84;5023040;28;20053;-51
2023/06/19 08:31:17;;;;;;;13.50;5.47;;;;;;;24.10;57.80;99574.28;5021766;28;20053;-49
2023/06/19 08:33:48;;;;;;;9.85;4.38;;;;;;;24.33;56.83;99583.34;5021208;28;20049;-50
2023/06/19 08:36:17;;;;;;;10.02;4.63;;;;;;;24.58;57.33;99576.34;5030210;28;20081;-50
2023/06/19 08:38:44;;;;;;;11.00;4.35;;;;;;;24.78;56.08;99579.41;5016826;28;20073;-52
2023/06/19 08:41:10;;;;;;;9.77;4.45;;;;;;;24.97;56.18;99580.78;5021226;28;20107;-50
2023/06/19 08:43:37;;;;;;;9.73;3.90;;;;;;;25.12;56.19;99584.13;5019845;28;20528;-51
2023/06/19 08:46:11;;;;;;;9.98;4.10;;;;;;;25.36;55.68;99578.06;5021680;28;20061;-52
2023/06/19 08:48:38;;;;;;;7.65;4.13;;;;;;;25.61;55.10;99569.19;5018073;28;20056;-53
2023/06/19 08:51:05;;;;;;;10.77;3.47;;;;;;;25.89;54.66;99583.03;5016524;28;20049;-51
2023/06/19 08:53:35;;;;;;;8.30;4.13;;;;;;;26.12;54.29;99577.81;5016862;28;20137;-55
2023/06/19 08:56:03;;;;;;;9.45;3.80;;;;;;;26.43;54.02;99580.78;5020048;28;20552;-53
2023/06/19 08:58:29;;;;;;;6.40;3.70;;;;;;;26.71;53.74;99576.94;5020442;28;20053;-53
2023/06/19 09:00:59;;;;;;;11.25;3.90;;;;;;;26.95;53.26;99585.63;5015268;28;20053;-56
2023/06/19 09:03:26;;;;;;;9.15;4.20;;;;;;;26.95;51.84;99585.63;5029662;28;20107;-56
2023/06/19 09:05:52;;;;;;;8.85;3.78;;;;;;;26.86;52.23;99588.16;5016509;28;20076;-54
2023/06/19 09:08:21;;;;;;;6.15;3.72;;;;;;;26.80;52.59;99586.84;5026852;28;20037;-55
2023/06/19 09:10:58;;;;;;;5.97;3.78;;;;;;;26.78;52.38;99594.09;5022478;28;20052;-52
2023/06/19 09:13:25;;;;;;;9.80;4.20;;;;;;;26.78;51.35;99594.09;5017854;28;20037;-55
2023/06/19 09:16:08;;;;;;;7.82;3.35;;;;;;;26.64;51.54;99588.03;5025998;28;20056;-55
2023/06/19 09:18:44;;;;;;;8.20;3.97;;;;;;;26.60;51.73;99585.75;5026832;28;20050;-58
2023/06/19 09:21:21;;;;;;;6.55;3.90;;;;;;;26.65;51.51;99589.72;5021194;28;20083;-59
2023/06/19 09:23:51;;;;;;;9.60;4.22;;;;;;;26.61;50.87;99588.28;5027127;28;20042;-56
2023/06/19 09:26:19;;;;;;;8.60;4.95;;;;;;;26.44;51.38;99598.41;5022826;28;20049;-57
2023/06/19 09:28:50;;;;;;;8.20;4.25;;;;;;;26.27;51.02;99602.34;5025307;28;20049;-56
2023/06/19 09:31:17;;;;;;;9.15;4.60;;;;;;;26.10;51.52;99597.47;5021734;28;20073;-60
2023/06/19 09:33:44;;;;;;;10.27;4.20;;;;;;;25.89;51.73;99598.09;5023335;28;20041;-56
2023/06/19 09:36:10;;;;;;;9.43;4.30;;;;;;;25.86;52.75;99599.16;5022847;28;20064;-58
2023/06/19 09:38:40;;;;;;;9.15;3.63;;;;;;;25.92;51.81;99606.69;5021261;28;20049;-57
2023/06/19 09:41:09;;;;;;;10.00;3.88;;;;;;;25.97;51.71;99605.50;5032074;28;20045;-58
2023/06/19 09:43:37;;;;;;;;;;;;;;;25.77;52.07;99611.31;5026134;28;20057;-57
2023/06/19 09:46:06;;;;;;;6.43;3.40;;;;;;;26.01;52.86;99618.38;5022844;28;20425;-55
2023/06/19 09:48:35;;;;;;;8.60;3.15;;;;;;;26.24;53.76;99612.34;5022294;28;20103;-49
2023/06/19 09:53:46;;;;;;;9.45;3.22;;;;;;;26.79;52.06;99611.72;5006427;28;20407;-48
2023/06/19 09:56:14;;;;;;;6.45;3.45;;;;;;;26.97;52.01;99624.53;4996863;28;20137;-54
2023/06/19 09:58:43;;;;;;;8.70;3.83;;;;;;;27.17;52.67;99618.50;4993646;28;20129;-50
2023/06/19 10:01:10;;;;;;;7.60;3.35;;;;;;;27.44;51.02;99617.25;4998680;28;20137;-48
2023/06/19 10:03:37;;;;;;;6.22;2.88;;;;;;;27.58;50.34;99624.09;4996672;28;20060;-50
2023/06/19 10:06:04;;;;;;;5.40;3.10;;;;;;;27.59;50.47;99624.94;4995138;28;20050;-53
2023/06/19 10:08:39;;;;;;;7.20;4.72;;;;;;;27.62;49.56;99608.72;5001695;28;20476;-53
2023/06/19 10:11:06;;;;;;;4.75;2.58;;;;;;;27.69;50.45;99617.94;4997188;28;20054;-53
2023/06/19 10:13:38;;;;;;;5.55;2.80;;;;;;;27.84;50.58;99612.31;4999194;28;20042;-50
2023/06/19 10:16:05;;;;;;;8.20;3.47;;;;;;;27.99;49.91;99609.38;4996036;28;20634;-52
2023/06/19 10:18:43;;;;;;;10.70;3.63;;;;;;;28.03;48.08;99598.31;4993156;28;20072;-53
2023/06/19 10:21:25;;;;;;;4.53;2.45;;;;;;;28.03;49.36;99605.47;4999086;28;20053;-51
2023/06/19 10:23:57;;;;;;;;;;;;;;;28.12;50.30;99607.34;4990454;28;20517;-53
2023/06/19 10:26:40;;;;;;;7.35;2.30;;;;;;;28.28;48.87;99608.75;4991886;28;19928;-53
2023/06/19 10:29:15;;;;;;;6.45;2.47;;;;;;;28.39;48.46;99606.00;4993333;28;20050;-49
2023/06/19 10:31:43;;;;;;;4.55;2.50;;;;;;;28.57;47.90;99602.75;4996343;28;20141;-53
2023/06/19 10:34:11;;;;;;;6.43;2.42;;;;;;;28.72;47.83;99612.09;4997884;28;20049;-53
2023/06/19 10:36:38;;;;;;;6.53;2.22;;;;;;;28.80;48.29;99607.91;4993149;28;20045;-49
2023/06/19 10:39:06;;;;;;;4.13;2.40;;;;;;;28.86;47.03;99610.03;4989712;28;20051;-55
2023/06/19 10:41:33;;;;;;;5.85;2.40;;;;;;;28.92;47.89;99604.22;4990861;28;20133;-54
2023/06/19 10:46:38;;;;;;;4.15;2.35;;;;;;;29.22;47.48;99605.13;5012902;28;20403;-52
2023/06/19 10:49:07;;;;;;;3.13;1.73;;;;;;;29.23;45.68;99604.16;5001607;28;20077;-54
2023/06/19 10:51:35;;;;;;;6.53;2.17;;;;;;;29.14;45.59;99602.28;5001157;28;20138;-52
2023/06/19 10:54:02;;;;;;;4.55;2.58;;;;;;;29.05;46.14;99601.31;4999569;28;20088;-55
2023/06/19 10:56:29;;;;;;;4.82;2.38;;;;;;;29.03;46.06;99597.94;5001487;28;20054;-54
2023/06/19 11:04:15;;;;;;;3.90;2.05;;;;;;;29.09;45.32;99601.88;5029403;28;20407;-50
2023/06/19 11:06:44;;;;;;;4.70;2.28;;;;;;;29.31;46.68;99600.78;5002106;28;20665;-50
2023/06/19 11:09:12;;;;;;;5.13;2.20;;;;;;;29.55;45.85;99609.44;5002611;28;20049;-53
2023/06/19 11:14:16;;;;;;;6.13;3.38;;;;;;;30.06;44.07;99598.63;5020924;27;20932;-56
2023/06/19 11:16:46;;;;;;;5.05;4.00;;;;;;;30.02;43.25;99606.91;5020947;28;20063;-56
2023/06/19 11:19:16;;;;;;;5.68;4.32;;;;;;;29.91;43.28;99607.06;5024659;28;20576;-51
2023/06/19 11:21:46;;;;;;;5.90;4.22;;;;;;;29.68;42.85;99602.00;5016038;28;20054;-54
2023/06/19 11:24:14;;;;;;;5.80;4.45;;;;;;;29.54;44.39;99605.91;5020863;28;20045;-56
2023/06/19 11:26:49;;;;;;;5.13;4.18;;;;;;;29.56;44.58;99603.13;5029184;28;20046;-51
2023/06/19 11:32:05;;;;;;;4.22;2.72;;;;;;;29.56;44.31;99597.78;5034260;27;20412;-53
2023/06/19 11:34:35;;;;;;;6.60;2.55;;;;;;;29.70;43.64;99593.84;5015489;28;20053;-48
2023/06/19 11:39:50;;;;;;;5.15;2.65;;;;;;;29.67;43.02;99591.47;5044001;28;20420;-55
2023/06/19 11:42:17;;;;;;;;;;;;;;;29.20;42.77;99596.44;5014335;28;20042;-50
2023/06/19 11:45:03;;;;;;;4.22;2.17;;;;;;;29.17;43.00;99591.38;5013524;28;19995;-50
2023/06/19 11:47:31;;;;;;;5.25;3.63;;;;;;;29.13;43.10;99581.94;5020164;28;20688;-45
2023/06/19 11:49:59;;;;;;;5.22;2.63;;;;;;;29.04;42.96;99582.78;5014117;28;20137;-49
2023/06/19 11:52:26;;;;;;;5.32;2.47;;;;;;;28.87;43.19;99587.72;5016313;28;20065;-51